Time;durP1;ratioP1;P1;durP2;ratioP2;P2;SDS_P1;SDS_P2;PMS_P1;PMS_P2;Temp;Humidity;BMP_temperature;BMP_pressure;BME280_temperature;BME280_humidity;BME280_pressure;Samples;Min_cycle;Max_cycle;Signal;HPM_P1;HPM_P2
2022/11/30 00:00:33;;;;;;;3.43;3.23;;;10.10;99.90;;;;;;5040054;28;20208;-64
2022/11/30 00:03:01;;;;;;;3.53;3.33;;;10.30;99.90;;;;;;5051878;28;20291;-64
2022/11/30 00:05:28;;;;;;;3.20;3.00;;;10.10;99.90;;;;;;5046817;28;20299;-64
2022/11/30 00:07:55;;;;;;;4.63;4.33;;;10.10;99.90;;;;;;5050353;28;20204;-65
2022/11/30 00:10:22;;;;;;;3.27;3.07;;;10.10;99.90;;;;;;5044142;28;20218;-64
2022/11/30 00:12:49;;;;;;;3.70;3.50;;;10.10;99.90;;;;;;5039445;28;20243;-63
2022/11/30 00:15:17;;;;;;;3.20;3.00;;;10.10;99.90;;;;;;5044528;28;20234;-64
2022/11/30 00:17:44;;;;;;;2.73;2.63;;;10.10;99.90;;;;;;5045342;28;20310;-64
2022/11/30 00:20:13;;;;;;;3.80;3.50;;;10.10;99.90;;;;;;5044639;28;20596;-64
2022/11/30 00:22:40;;;;;;;4.07;3.77;;;10.10;99.90;;;;;;5041597;28;20224;-64
2022/11/30 00:25:08;;;;;;;3.10;2.90;;;10.00;99.90;;;;;;5047633;28;20303;-63
2022/11/30 00:27:35;;;;;;;3.77;3.57;;;10.00;99.90;;;;;;5052973;28;20226;-64
2022/11/30 00:30:02;;;;;;;3.33;3.13;;;10.00;99.90;;;;;;5056342;28;20219;-65
2022/11/30 00:32:29;;;;;;;3.53;3.33;;;10.00;99.90;;;;;;5052983;28;20251;-63
2022/11/30 00:34:57;;;;;;;3.50;3.30;;;10.00;99.90;;;;;;5051871;28;20231;-63
2022/11/30 00:37:25;;;;;;;3.70;3.47;;;10.00;99.90;;;;;;5042977;28;20288;-64
2022/11/30 00:39:52;;;;;;;2.80;2.70;;;10.00;99.90;;;;;;5042147;28;20287;-63
2022/11/30 00:42:19;;;;;;;3.07;2.87;;;10.00;99.90;;;;;;5041380;28;20286;-64
2022/11/30 00:44:46;;;;;;;2.43;2.33;;;10.00;99.90;;;;;;5038817;28;20230;-64
2022/11/30 00:47:12;;;;;;;3.07;2.87;;;10.00;99.90;;;;;;5050668;28;20212;-64
2022/11/30 00:49:39;;;;;;;3.20;3.00;;;10.00;99.90;;;;;;5048592;28;20230;-65
2022/11/30 00:52:06;;;;;;;3.43;3.23;;;10.00;99.90;;;;;;5043461;28;20651;-64
2022/11/30 00:54:34;;;;;;;3.90;3.70;;;9.90;99.90;;;;;;5042099;28;20950;-64
2022/11/30 00:57:01;;;;;;;4.17;3.87;;;9.80;99.90;;;;;;5041146;28;20279;-64
2022/11/30 00:59:28;;;;;;;3.70;3.50;;;9.80;99.90;;;;;;5041572;28;20201;-64
2022/11/30 01:01:55;;;;;;;3.50;3.30;;;9.70;99.90;;;;;;5040341;28;20537;-64
2022/11/30 01:04:22;;;;;;;4.00;3.70;;;9.80;99.90;;;;;;5041204;28;20228;-64
2022/11/30 01:06:48;;;;;;;3.40;3.20;;;9.90;99.90;;;;;;5046052;28;20298;-63
2022/11/30 01:09:15;;;;;;;3.67;3.43;;;10.00;99.90;;;;;;5040022;28;20281;-63
2022/11/30 01:11:43;;;;;;;3.40;3.20;;;10.10;99.90;;;;;;5044292;28;20216;-65
2022/11/30 01:14:10;;;;;;;2.80;2.70;;;10.00;99.90;;;;;;5049435;28;20292;-64
2022/11/30 01:16:37;;;;;;;3.03;2.93;;;10.00;99.90;;;;;;5051590;28;20197;-64
2022/11/30 01:19:04;;;;;;;3.30;3.10;;;10.10;99.90;;;;;;5052381;28;20204;-65
2022/11/30 01:21:31;;;;;;;2.87;2.77;;;10.10;99.90;;;;;;5048773;28;20236;-64
2022/11/30 01:23:58;;;;;;;3.67;3.47;;;10.10;99.90;;;;;;5046516;28;20224;-63
2022/11/30 01:26:25;;;;;;;3.10;2.90;;;10.10;99.90;;;;;;5047991;28;20224;-63
2022/11/30 01:28:55;;;;;;;3.10;2.97;;;9.90;99.90;;;;;;5048004;28;20200;-64
2022/11/30 01:31:23;;;;;;;3.57;3.37;;;9.80;99.90;;;;;;5052508;28;20745;-64
2022/11/30 01:33:51;;;;;;;4.10;3.80;;;9.80;99.90;;;;;;5046296;28;20223;-63
2022/11/30 01:36:21;;;;;;;3.97;3.77;;;9.80;99.90;;;;;;5041212;28;20211;-64
2022/11/30 01:38:49;;;;;;;3.77;3.57;;;9.80;99.90;;;;;;5047103;28;20232;-64
2022/11/30 01:41:20;;;;;;;3.90;3.70;;;9.70;99.90;;;;;;5054018;28;20578;-65
2022/11/30 01:43:49;;;;;;;3.70;3.50;;;9.70;99.90;;;;;;5047065;28;20274;-64
2022/11/30 01:46:28;;;;;;;3.80;3.60;;;9.60;99.90;;;;;;5047326;28;20718;-64
2022/11/30 01:49:04;;;;;;;3.67;3.47;;;9.50;99.90;;;;;;5050568;28;20206;-66
2022/11/30 01:51:36;;;;;;;4.10;3.80;;;9.60;99.90;;;;;;5039907;28;20247;-64
2022/11/30 01:54:05;;;;;;;3.70;3.50;;;9.60;99.90;;;;;;5048663;28;20255;-65
2022/11/30 01:56:32;;;;;;;3.97;3.70;;;9.50;99.90;;;;;;5046089;28;20202;-64
2022/11/30 01:58:59;;;;;;;3.97;3.67;;;9.50;99.90;;;;;;5049270;28;20258;-64
2022/11/30 02:01:27;;;;;;;3.97;3.77;;;9.40;99.90;;;;;;5045613;28;20200;-63
2022/11/30 02:04:00;;;;;;;4.03;3.73;;;9.40;99.90;;;;;;5048304;28;20266;-65
2022/11/30 02:06:27;;;;;;;3.90;3.60;;;9.30;99.90;;;;;;5044374;28;20283;-64
2022/11/30 02:08:54;;;;;;;3.30;3.10;;;9.30;99.90;;;;;;5045873;28;20307;-64
2022/11/30 02:11:23;;;;;;;3.07;2.87;;;9.40;99.90;;;;;;5048600;28;20242;-64
2022/11/30 02:14:02;;;;;;;3.43;3.23;;;9.40;99.90;;;;;;5050340;28;20227;-64
2022/11/30 02:16:40;;;;;;;3.90;3.60;;;9.40;99.90;;;;;;5044368;28;20251;-65
2022/11/30 02:19:36;;;;;;;4.80;3.37;;;9.40;99.90;;;;;;5043783;28;20204;-64
2022/11/30 02:22:11;;;;;;;3.40;3.20;;;9.40;99.90;;;;;;5046318;28;20291;-64
2022/11/30 02:24:50;;;;;;;3.77;3.47;;;9.30;99.90;;;;;;5046622;28;20227;-65
2022/11/30 02:27:30;;;;;;;3.63;3.33;;;9.30;99.90;;;;;;5045703;28;20211;-63
2022/11/30 02:30:03;;;;;;;3.33;3.00;;;9.30;99.90;;;;;;5050377;28;20192;-65
2022/11/30 02:32:35;;;;;;;3.63;3.33;;;9.40;99.90;;;;;;5051801;28;20327;-64
2022/11/30 02:35:04;;;;;;;3.13;2.93;;;9.40;99.90;;;;;;5051170;28;20221;-64
2022/11/30 02:37:34;;;;;;;3.37;3.17;;;9.30;99.90;;;;;;5067264;28;20215;-64
2022/11/30 02:40:00;;;;;;;4.00;3.80;;;9.30;99.90;;;;;;5060860;28;20215;-64
2022/11/30 02:42:27;;;;;;;3.93;3.73;;;9.30;99.90;;;;;;5062857;28;20256;-64
2022/11/30 02:44:54;;;;;;;3.70;3.50;;;9.20;99.90;;;;;;5052589;28;20244;-65
2022/11/30 02:47:28;;;;;;;3.20;3.00;;;9.20;99.90;;;;;;5059887;28;20299;-64
2022/11/30 02:49:59;;;;;;;3.40;3.20;;;9.10;99.90;;;;;;5052916;28;20234;-64
2022/11/30 02:52:29;;;;;;;2.83;2.70;;;9.00;99.90;;;;;;5046294;28;20422;-65
2022/11/30 02:55:00;;;;;;;2.90;2.70;;;9.00;99.90;;;;;;5044926;28;20247;-64
2022/11/30 02:57:26;;;;;;;2.70;2.60;;;9.10;99.90;;;;;;5045378;28;20672;-64
2022/11/30 02:59:54;;;;;;;2.73;2.63;;;9.10;99.90;;;;;;5051309;28;20204;-64
2022/11/30 03:02:21;;;;;;;3.33;3.13;;;9.10;99.90;;;;;;5041862;28;20206;-63
2022/11/30 03:04:49;;;;;;;2.90;2.70;;;9.10;99.90;;;;;;5046345;28;20224;-63
2022/11/30 03:07:16;;;;;;;2.80;2.60;;;9.10;99.90;;;;;;5049283;28;20652;-64
2022/11/30 03:09:42;;;;;;;2.50;2.40;;;9.10;99.90;;;;;;5047147;28;20267;-63
2022/11/30 03:12:09;;;;;;;2.93;2.73;;;9.10;99.90;;;;;;5049162;28;20253;-63
2022/11/30 03:14:36;;;;;;;2.90;2.70;;;9.10;99.90;;;;;;5038818;28;20222;-64
2022/11/30 03:17:04;;;;;;;3.20;3.00;;;9.10;99.90;;;;;;5050601;28;20210;-64
2022/11/30 03:19:31;;;;;;;2.50;2.40;;;9.00;99.90;;;;;;5046194;28;20204;-64
2022/11/30 03:21:59;;;;;;;2.60;2.50;;;9.00;99.90;;;;;;5045938;28;20327;-64
2022/11/30 03:24:26;;;;;;;3.20;3.00;;;9.10;99.90;;;;;;5043151;28;20247;-64
2022/11/30 03:26:53;;;;;;;3.20;3.00;;;9.10;99.90;;;;;;5045397;28;20640;-64
2022/11/30 03:29:20;;;;;;;2.73;2.63;;;9.10;99.90;;;;;;5047908;28;20218;-63
2022/11/30 03:31:47;;;;;;;2.33;2.23;;;9.20;99.90;;;;;;5049744;28;20258;-63
2022/11/30 03:34:14;;;;;;;2.60;2.50;;;9.20;99.90;;;;;;5041670;28;20231;-64
2022/11/30 03:36:40;;;;;;;3.40;3.10;;;9.20;99.90;;;;;;5048376;28;20386;-63
2022/11/30 03:39:09;;;;;;;2.70;2.60;;;9.10;99.90;;;;;;5050338;28;20287;-64
2022/11/30 03:41:36;;;;;;;2.40;2.30;;;9.20;99.90;;;;;;5053515;28;20204;-63
2022/11/30 03:44:03;;;;;;;2.47;2.37;;;9.20;99.90;;;;;;5042622;28;20251;-64
2022/11/30 03:46:30;;;;;;;2.40;2.30;;;9.20;99.90;;;;;;5053584;28;20218;-63
2022/11/30 03:48:57;;;;;;;2.30;2.20;;;9.10;99.90;;;;;;5056387;28;20601;-63
2022/11/30 03:51:23;;;;;;;2.30;2.20;;;9.20;99.90;;;;;;5058131;28;20218;-63
2022/11/30 03:53:50;;;;;;;2.13;2.03;;;9.20;99.90;;;;;;5053429;28;20324;-65
2022/11/30 03:56:18;;;;;;;2.80;2.60;;;9.20;99.90;;;;;;5057922;28;20295;-64
2022/11/30 03:58:45;;;;;;;2.37;2.27;;;9.10;99.90;;;;;;5063687;28;20502;-64
2022/11/30 04:01:14;;;;;;;2.17;2.07;;;9.10;99.90;;;;;;5068008;28;20204;-63
2022/11/30 04:03:42;;;;;;;2.10;2.00;;;9.10;99.90;;;;;;5053926;28;20220;-63
2022/11/30 04:06:10;;;;;;;2.27;2.07;;;9.10;99.90;;;;;;5045180;28;20204;-64
2022/11/30 04:08:38;;;;;;;2.70;2.50;;;9.10;99.90;;;;;;5055542;28;20200;-64
2022/11/30 04:11:06;;;;;;;2.57;2.47;;;9.10;99.90;;;;;;5054532;28;20212;-63
2022/11/30 04:13:36;;;;;;;2.57;2.37;;;9.00;99.90;;;;;;5049015;28;20340;-65
2022/11/30 04:16:04;;;;;;;2.47;2.37;;;8.90;99.90;;;;;;5059012;28;20199;-66
2022/11/30 04:18:33;;;;;;;2.40;2.30;;;8.90;99.90;;;;;;5060622;28;20238;-64
2022/11/30 04:21:01;;;;;;;2.40;2.30;;;8.90;99.90;;;;;;5055481;28;20291;-64
2022/11/30 04:23:30;;;;;;;2.60;2.50;;;8.90;99.90;;;;;;5054197;28;20215;-64
2022/11/30 04:25:58;;;;;;;2.83;2.40;;;8.80;99.90;;;;;;5048798;28;20676;-64
2022/11/30 04:28:24;;;;;;;2.50;2.40;;;8.70;99.90;;;;;;5054001;28;20494;-64
2022/11/30 04:30:53;;;;;;;2.70;2.53;;;8.70;99.90;;;;;;5054152;28;20530;-63
2022/11/30 04:33:20;;;;;;;2.83;2.70;;;8.80;99.90;;;;;;5052640;28;21024;-64
2022/11/30 04:35:49;;;;;;;2.57;2.47;;;8.70;99.90;;;;;;5046250;28;20203;-64
2022/11/30 04:38:16;;;;;;;3.00;2.80;;;8.60;99.90;;;;;;5052835;28;20291;-63
2022/11/30 04:40:44;;;;;;;2.90;2.70;;;8.50;99.90;;;;;;5053266;28;20291;-63
2022/11/30 04:43:12;;;;;;;2.70;2.60;;;8.50;99.90;;;;;;5054340;28;20228;-64
2022/11/30 04:45:39;;;;;;;2.80;2.60;;;8.40;99.90;;;;;;5045976;28;20635;-63
2022/11/30 04:48:08;;;;;;;2.50;2.40;;;8.40;99.90;;;;;;5052946;28;20215;-63
2022/11/30 04:50:35;;;;;;;2.50;2.40;;;8.40;99.90;;;;;;5053749;28;20204;-64
2022/11/30 04:53:02;;;;;;;3.03;2.83;;;8.30;99.90;;;;;;5053292;28;20250;-63
2022/11/30 04:55:29;;;;;;;3.03;2.83;;;8.40;99.90;;;;;;5046373;28;20239;-64
2022/11/30 04:57:55;;;;;;;2.60;2.50;;;8.40;99.90;;;;;;5058170;28;20294;-64
2022/11/30 05:00:23;;;;;;;2.93;2.73;;;8.40;99.90;;;;;;5056759;28;20704;-65
2022/11/30 05:02:50;;;;;;;2.70;2.50;;;8.40;99.90;;;;;;5045775;28;20228;-64
2022/11/30 05:05:18;;;;;;;2.50;2.40;;;8.60;99.90;;;;;;5048476;28;20703;-64
2022/11/30 05:07:49;;;;;;;2.60;2.50;;;8.70;99.90;;;;;;5047000;28;20215;-64
2022/11/30 05:10:16;;;;;;;2.87;2.67;;;8.80;99.90;;;;;;5041406;28;20241;-63
2022/11/30 05:12:43;;;;;;;2.40;2.30;;;8.80;99.90;;;;;;5045658;28;20299;-63
2022/11/30 05:15:11;;;;;;;2.40;2.30;;;8.90;99.90;;;;;;5048234;28;20230;-62
2022/11/30 05:17:38;;;;;;;2.47;2.37;;;9.00;99.90;;;;;;5052420;28;20291;-65
2022/11/30 05:20:06;;;;;;;2.10;2.00;;;9.00;99.90;;;;;;5045269;28;20307;-64
2022/11/30 05:22:35;;;;;;;2.47;2.37;;;9.00;99.90;;;;;;5044618;28;20283;-63
2022/11/30 05:25:02;;;;;;;2.50;2.40;;;9.00;99.90;;;;;;5045716;28;20407;-64
2022/11/30 05:27:29;;;;;;;2.30;2.20;;;9.00;99.90;;;;;;5041916;28;20205;-65
2022/11/30 05:29:55;;;;;;;2.50;2.40;;;9.10;99.90;;;;;;5041091;28;20307;-63
2022/11/30 05:32:22;;;;;;;2.53;2.43;;;9.10;99.90;;;;;;5045804;28;20235;-65
2022/11/30 05:34:49;;;;;;;2.37;2.27;;;9.10;99.90;;;;;;5039099;28;20316;-64
2022/11/30 05:37:16;;;;;;;2.50;2.40;;;9.10;99.90;;;;;;5046265;28;20208;-64
2022/11/30 05:39:44;;;;;;;2.53;2.43;;;9.10;99.90;;;;;;5039977;28;20290;-63
2022/11/30 05:42:11;;;;;;;2.83;2.63;;;9.10;99.90;;;;;;5043429;28;20209;-63
2022/11/30 05:44:38;;;;;;;2.47;2.37;;;9.10;99.90;;;;;;5048874;28;20229;-64
2022/11/30 05:47:05;;;;;;;2.50;2.40;;;9.10;99.90;;;;;;5047104;28;20662;-64
2022/11/30 05:49:31;;;;;;;2.30;2.20;;;9.10;99.90;;;;;;5052854;28;20208;-62
2022/11/30 05:51:58;;;;;;;2.40;2.30;;;9.00;99.90;;;;;;5052485;28;20310;-63
2022/11/30 05:54:25;;;;;;;2.80;2.60;;;9.00;99.90;;;;;;5046654;28;20598;-63
2022/11/30 05:56:53;;;;;;;2.30;2.20;;;9.10;99.90;;;;;;5054316;28;20381;-62
2022/11/30 05:59:20;;;;;;;3.10;2.90;;;9.20;99.90;;;;;;5053267;28;20653;-64
2022/11/30 06:01:47;;;;;;;3.00;2.80;;;9.20;99.90;;;;;;5052658;28;20211;-64
2022/11/30 06:04:14;;;;;;;3.17;2.90;;;9.20;99.90;;;;;;5046650;28;20881;-63
2022/11/30 06:06:41;;;;;;;2.70;2.50;;;9.20;99.90;;;;;;5050301;28;20204;-64
2022/11/30 06:09:07;;;;;;;2.27;2.17;;;9.20;99.90;;;;;;5050144;28;20211;-64
2022/11/30 06:11:34;;;;;;;2.10;2.00;;;9.20;99.90;;;;;;5050525;28;20208;-64
2022/11/30 06:14:03;;;;;;;1.90;1.80;;;9.20;99.90;;;;;;5046831;28;20238;-64
2022/11/30 06:16:30;;;;;;;2.07;1.97;;;9.20;99.90;;;;;;5048944;28;20287;-62
2022/11/30 06:18:57;;;;;;;2.30;2.20;;;9.20;99.90;;;;;;5050211;28;20212;-64
2022/11/30 06:21:24;;;;;;;2.10;2.00;;;9.20;99.90;;;;;;5050560;28;20231;-63
2022/11/30 06:23:50;;;;;;;1.80;1.70;;;9.20;99.90;;;;;;5048920;28;20230;-64
2022/11/30 06:26:17;;;;;;;2.10;2.00;;;9.20;99.90;;;;;;5046451;28;20643;-64
2022/11/30 06:28:44;;;;;;;2.10;2.00;;;9.30;99.90;;;;;;5049596;28;20228;-62
2022/11/30 06:31:12;;;;;;;2.20;2.10;;;9.30;99.90;;;;;;5040771;28;20204;-63
2022/11/30 06:33:39;;;;;;;2.50;2.30;;;9.30;99.90;;;;;;5049904;28;20230;-63
2022/11/30 06:36:07;;;;;;;2.30;2.20;;;9.30;99.90;;;;;;5045925;28;20200;-66
2022/11/30 06:38:34;;;;;;;2.43;2.33;;;9.30;99.90;;;;;;5045036;28;20208;-63
2022/11/30 06:41:05;;;;;;;2.10;2.00;;;9.40;99.90;;;;;;5050032;28;20230;-65
2022/11/30 06:43:36;;;;;;;2.27;2.17;;;9.40;99.90;;;;;;5042726;28;20226;-65
2022/11/30 06:46:04;;;;;;;2.73;2.60;;;9.40;99.90;;;;;;5039873;28;20216;-63
2022/11/30 06:48:33;;;;;;;2.43;2.33;;;9.30;99.90;;;;;;5046589;28;20288;-66
2022/11/30 06:51:00;;;;;;;2.20;2.10;;;9.40;99.90;;;;;;5041409;28;20307;-63
2022/11/30 06:53:27;;;;;;;2.87;2.67;;;9.30;99.90;;;;;;5054854;28;20226;-65
2022/11/30 06:55:54;;;;;;;3.23;3.03;;;9.20;99.90;;;;;;5046197;28;20707;-65
2022/11/30 06:58:21;;;;;;;3.20;3.00;;;9.20;99.90;;;;;;5060817;28;20271;-63
2022/11/30 07:00:48;;;;;;;3.43;3.23;;;9.10;99.90;;;;;;5051365;28;20211;-64
2022/11/30 07:03:15;;;;;;;3.30;3.10;;;9.10;99.90;;;;;;5067715;28;20227;-64
2022/11/30 07:05:45;;;;;;;3.50;3.30;;;9.20;99.90;;;;;;5045462;28;20268;-64
2022/11/30 07:08:12;;;;;;;3.07;2.87;;;9.30;99.90;;;;;;5048450;28;20200;-64
2022/11/30 07:10:40;;;;;;;3.03;2.90;;;9.30;99.90;;;;;;5045433;28;20196;-64
2022/11/30 07:13:10;;;;;;;3.17;2.97;;;9.40;99.90;;;;;;5045518;28;20231;-66
2022/11/30 07:15:37;;;;;;;3.23;3.03;;;9.40;99.90;;;;;;5055983;28;20211;-65
2022/11/30 07:18:04;;;;;;;3.10;2.97;;;9.40;99.90;;;;;;5052837;28;20321;-62
2022/11/30 07:20:31;;;;;;;2.80;2.60;;;9.40;99.90;;;;;;5054748;28;20684;-65
2022/11/30 07:26:05;;;;;;;2.40;2.30;;;9.40;99.90;;;;;;5052802;28;20196;-64
2022/11/30 07:28:40;;;;;;;2.20;2.10;;;9.30;99.90;;;;;;5055229;28;20192;-65
2022/11/30 07:31:14;;;;;;;2.37;2.27;;;9.40;99.90;;;;;;5060171;28;20287;-65
2022/11/30 07:33:41;;;;;;;2.30;2.20;;;9.30;99.90;;;;;;5053173;28;20227;-65
2022/11/30 07:36:09;;;;;;;2.10;2.00;;;9.30;99.90;;;;;;5049753;28;20196;-64
2022/11/30 07:38:38;;;;;;;1.90;1.80;;;9.30;99.90;;;;;;5046061;28;20207;-64
2022/11/30 07:41:05;;;;;;;2.17;2.07;;;9.30;99.90;;;;;;5048399;28;20300;-65
2022/11/30 07:43:32;;;;;;;2.00;1.90;;;9.30;99.90;;;;;;5050520;28;20281;-64
2022/11/30 07:46:00;;;;;;;2.03;1.93;;;9.20;99.90;;;;;;5051885;28;20211;-64
2022/11/30 07:48:26;;;;;;;2.33;2.13;;;9.30;99.90;;;;;;5050252;28;20417;-65
2022/11/30 07:50:53;;;;;;;2.53;2.43;;;9.30;99.90;;;;;;5050022;28;20208;-66
2022/11/30 07:53:20;;;;;;;2.53;2.43;;;9.30;99.90;;;;;;5050718;28;20227;-65
2022/11/30 07:55:49;;;;;;;2.20;2.10;;;9.30;99.90;;;;;;5051647;28;20200;-66
2022/11/30 07:58:16;;;;;;;2.27;2.17;;;9.30;99.90;;;;;;5051070;28;20269;-65
2022/11/30 08:00:42;;;;;;;1.83;1.73;;;9.20;99.90;;;;;;5050747;28;20304;-66
2022/11/30 08:03:09;;;;;;;2.03;1.93;;;9.20;99.90;;;;;;5044843;28;20224;-65
2022/11/30 08:05:36;;;;;;;2.10;2.00;;;9.20;99.90;;;;;;5050111;28;20575;-65
2022/11/30 08:08:03;;;;;;;2.10;2.00;;;9.20;99.90;;;;;;5041531;28;20211;-65
2022/11/30 08:10:30;;;;;;;2.33;2.23;;;9.30;99.90;;;;;;5048135;28;20223;-65
2022/11/30 08:12:58;;;;;;;2.10;2.00;;;9.40;99.90;;;;;;5040668;28;20295;-65
2022/11/30 08:15:25;;;;;;;2.07;1.97;;;9.50;99.90;;;;;;5037435;28;20748;-64
2022/11/30 08:17:54;;;;;;;2.30;2.20;;;9.40;99.90;;;;;;5038672;28;20219;-65
2022/11/30 08:20:22;;;;;;;2.43;2.33;;;9.50;99.90;;;;;;5051849;28;20208;-63
2022/11/30 08:22:50;;;;;;;2.83;2.63;;;9.40;99.90;;;;;;5047078;28;20218;-65
2022/11/30 08:25:17;;;;;;;2.60;2.50;;;9.40;99.90;;;;;;5052403;28;20224;-64
2022/11/30 08:27:44;;;;;;;2.73;2.53;;;9.50;99.90;;;;;;5053123;28;20200;-65
2022/11/30 08:30:13;;;;;;;2.63;2.53;;;9.50;99.90;;;;;;5040750;28;20205;-64
2022/11/30 08:32:40;;;;;;;3.00;2.90;;;9.50;99.90;;;;;;5047163;28;20203;-66
2022/11/30 08:35:07;;;;;;;2.87;2.67;;;9.60;99.90;;;;;;5044913;28;20223;-64
2022/11/30 08:37:37;;;;;;;2.90;2.70;;;9.60;99.90;;;;;;5061971;28;20206;-64
2022/11/30 08:40:05;;;;;;;3.07;2.87;;;9.60;99.90;;;;;;5047813;28;20204;-65
2022/11/30 08:42:32;;;;;;;2.73;2.60;;;9.60;99.90;;;;;;5055959;28;20284;-65
2022/11/30 08:44:59;;;;;;;2.53;2.43;;;9.60;99.90;;;;;;5046764;28;20226;-65
2022/11/30 08:47:29;;;;;;;2.73;2.53;;;9.60;99.90;;;;;;5049874;28;20215;-63
2022/11/30 08:49:57;;;;;;;2.70;2.60;;;9.70;99.90;;;;;;5051805;28;20664;-65
2022/11/30 08:52:24;;;;;;;2.93;2.83;;;9.70;99.90;;;;;;5048831;28;20228;-66
2022/11/30 08:54:51;;;;;;;3.00;2.80;;;9.80;99.90;;;;;;5048827;28;20227;-65
2022/11/30 08:57:19;;;;;;;3.20;3.00;;;9.70;99.90;;;;;;5053104;28;20211;-65
2022/11/30 08:59:46;;;;;;;2.90;2.70;;;9.80;99.90;;;;;;5051153;28;20294;-65
2022/11/30 09:02:16;;;;;;;2.70;2.60;;;9.80;99.90;;;;;;5038389;28;20280;-65
2022/11/30 09:04:46;;;;;;;2.77;2.67;;;9.90;99.90;;;;;;5051058;28;20224;-64
2022/11/30 09:07:13;;;;;;;2.60;2.50;;;9.90;99.90;;;;;;5044391;28;20201;-65
2022/11/30 09:09:40;;;;;;;4.23;4.03;;;10.00;99.90;;;;;;5070379;28;20203;-65
2022/11/30 09:12:07;;;;;;;3.30;3.10;;;10.00;99.90;;;;;;5068792;28;20204;-63
2022/11/30 09:14:35;;;;;;;3.73;3.53;;;10.00;99.90;;;;;;5081434;28;20237;-63
2022/11/30 09:17:02;;;;;;;3.40;3.20;;;10.00;99.90;;;;;;5046564;28;20671;-63
2022/11/30 09:19:29;;;;;;;3.30;3.10;;;10.10;99.90;;;;;;5054402;28;20235;-65
2022/11/30 09:21:57;;;;;;;3.37;3.17;;;10.00;99.90;;;;;;5047319;28;20287;-63
2022/11/30 09:24:24;;;;;;;2.70;2.60;;;10.00;99.90;;;;;;5041573;28;20646;-63
2022/11/30 09:26:51;;;;;;;3.20;3.00;;;10.00;99.90;;;;;;5044391;28;20304;-62
2022/11/30 09:29:18;;;;;;;2.67;2.47;;;10.10;99.90;;;;;;5049289;28;20218;-62
2022/11/30 09:31:45;;;;;;;2.60;2.50;;;10.10;99.90;;;;;;5047699;28;20211;-63
2022/11/30 09:34:12;;;;;;;2.80;2.60;;;10.10;99.90;;;;;;5045642;28;20322;-63
2022/11/30 09:36:39;;;;;;;2.90;2.70;;;10.20;99.90;;;;;;5053212;28;20298;-66
2022/11/30 09:39:11;;;;;;;2.57;2.47;;;10.20;99.90;;;;;;5053965;28;20295;-65
2022/11/30 09:42:09;;;;;;;2.90;2.70;;;10.10;99.90;;;;;;5053189;28;20575;-65
2022/11/30 09:44:43;;;;;;;3.43;3.23;;;10.10;99.90;;;;;;5049937;28;20479;-66
2022/11/30 09:47:25;;;;;;;2.80;2.60;;;10.00;99.90;;;;;;5058955;28;20215;-65
2022/11/30 09:49:51;;;;;;;2.80;2.60;;;10.00;99.90;;;;;;5052207;28;20683;-65
2022/11/30 09:52:22;;;;;;;2.90;2.70;;;10.00;99.90;;;;;;5052641;28;20287;-65
2022/11/30 09:54:50;;;;;;;2.70;2.53;;;9.90;99.90;;;;;;5054092;28;20234;-65
2022/11/30 09:57:25;;;;;;;3.17;2.97;;;9.70;99.90;;;;;;5056110;28;20208;-66
2022/11/30 09:59:55;;;;;;;3.10;2.90;;;9.70;99.90;;;;;;5053518;28;20203;-65
2022/11/30 10:02:27;;;;;;;3.17;2.97;;;9.60;99.90;;;;;;5047291;28;20200;-64
2022/11/30 10:04:54;;;;;;;3.23;3.03;;;9.50;99.90;;;;;;5052804;28;20619;-66
2022/11/30 10:07:37;;;;;;;3.03;2.87;;;9.50;99.90;;;;;;5042005;28;20204;-64
2022/11/30 10:10:14;;;;;;;2.83;2.73;;;9.40;99.90;;;;;;5052944;28;20299;-65
2022/11/30 10:12:47;;;;;;;3.57;3.37;;;9.40;99.90;;;;;;5052496;28;20203;-65
2022/11/30 10:15:26;;;;;;;3.30;3.10;;;9.40;99.90;;;;;;5056194;28;20258;-64
2022/11/30 10:17:54;;;;;;;3.43;3.23;;;9.20;99.90;;;;;;5052469;28;20237;-65
2022/11/30 10:20:48;;;;;;;2.83;2.73;;;9.10;99.90;;;;;;5052254;28;20235;-64
2022/11/30 10:23:31;;;;;;;3.50;3.30;;;9.20;99.90;;;;;;5035820;28;20243;-64
2022/11/30 10:26:04;;;;;;;3.33;3.13;;;9.20;99.90;;;;;;5041821;28;20260;-64
2022/11/30 10:28:43;;;;;;;3.30;3.10;;;9.20;99.90;;;;;;5037747;28;20295;-64
2022/11/30 10:31:12;;;;;;;2.93;2.80;;;9.30;99.90;;;;;;5053347;28;20200;-64
2022/11/30 10:33:43;;;;;;;3.10;2.90;;;9.30;99.90;;;;;;5050900;28;20741;-65
2022/11/30 10:36:13;;;;;;;3.40;3.20;;;9.30;99.90;;;;;;5052378;28;20199;-65
2022/11/30 10:38:45;;;;;;;3.17;2.97;;;9.40;99.90;;;;;;5062901;28;20229;-64
2022/11/30 10:41:17;;;;;;;3.23;3.03;;;9.30;99.90;;;;;;5052769;28;20294;-64
2022/11/30 10:43:48;;;;;;;3.17;2.97;;;9.30;99.90;;;;;;5052997;28;20575;-62
2022/11/30 10:46:21;;;;;;;2.67;2.47;;;9.30;99.90;;;;;;5059009;28;20637;-64
2022/11/30 10:48:55;;;;;;;3.00;2.80;;;9.30;99.90;;;;;;5050921;28;20291;-64
2022/11/30 10:51:23;;;;;;;2.97;2.80;;;9.40;99.90;;;;;;5049368;28;20211;-64
2022/11/30 10:53:49;;;;;;;2.83;2.63;;;9.50;99.90;;;;;;5050669;28;20493;-65
2022/11/30 10:56:18;;;;;;;2.70;2.60;;;9.50;99.90;;;;;;5041141;28;20208;-66
2022/11/30 10:58:51;;;;;;;2.70;2.60;;;9.70;99.90;;;;;;5037161;28;20225;-65
2022/11/30 11:01:33;;;;;;;2.50;2.40;;;9.70;99.90;;;;;;5047049;28;20208;-65
2022/11/30 11:04:09;;;;;;;2.73;2.57;;;9.70;99.90;;;;;;5055844;28;20235;-64
2022/11/30 11:06:36;;;;;;;2.57;2.47;;;9.70;99.90;;;;;;5045833;28;20215;-64
2022/11/30 11:09:30;;;;;;;2.50;2.40;;;9.70;99.90;;;;;;5040006;28;20200;-65
2022/11/30 11:12:00;;;;;;;4.40;4.10;;;9.70;99.90;;;;;;5051101;28;20231;-64
2022/11/30 11:14:28;;;;;;;2.87;2.67;;;9.80;99.90;;;;;;5045812;28;20347;-65
2022/11/30 11:16:57;;;;;;;2.97;2.77;;;9.80;99.90;;;;;;5048182;28;20210;-64
2022/11/30 11:19:32;;;;;;;3.00;2.80;;;9.80;99.90;;;;;;5042263;28;20743;-65
2022/11/30 11:22:01;;;;;;;2.63;2.53;;;9.90;99.90;;;;;;5049589;28;20200;-65
2022/11/30 11:24:28;;;;;;;2.60;2.50;;;9.90;99.90;;;;;;5041928;28;20235;-63
2022/11/30 11:26:58;;;;;;;2.37;2.27;;;9.90;99.90;;;;;;5048112;28;20230;-64
2022/11/30 11:29:31;;;;;;;2.87;2.77;;;9.90;99.90;;;;;;5043668;28;20299;-64
2022/11/30 11:32:23;;;;;;;2.60;2.50;;;10.00;99.90;;;;;;5040541;28;20232;-65
2022/11/30 11:34:50;;;;;;;2.60;2.40;;;9.90;99.90;;;;;;5031128;28;20224;-64
2022/11/30 11:37:22;;;;;;;2.73;2.53;;;9.90;99.90;;;;;;5034382;28;20210;-65
2022/11/30 11:40:00;;;;;;;2.67;2.53;;;9.90;99.90;;;;;;5047141;28;20702;-65
2022/11/30 11:42:32;;;;;;;2.63;2.53;;;9.90;99.90;;;;;;5051674;28;20291;-64
2022/11/30 11:45:01;;;;;;;2.50;2.40;;;9.90;99.90;;;;;;5050406;28;20224;-64
2022/11/30 11:47:32;;;;;;;2.50;2.40;;;9.90;99.90;;;;;;5040480;28;20255;-65
2022/11/30 11:50:30;;;;;;;2.50;2.40;;;9.90;99.90;;;;;;5046506;28;20287;-65
2022/11/30 11:53:21;;;;;;;2.40;2.30;;;9.90;99.90;;;;;;5037697;28;20200;-65
2022/11/30 11:55:50;;;;;;;2.40;2.30;;;9.90;99.90;;;;;;5036741;28;20638;-64
2022/11/30 11:58:24;;;;;;;2.63;2.53;;;9.90;99.90;;;;;;5046986;28;20215;-63
2022/11/30 12:00:54;;;;;;;2.27;2.17;;;9.90;99.90;;;;;;5049047;28;20230;-65
2022/11/30 12:03:31;;;;;;;2.40;2.30;;;9.90;99.90;;;;;;5051882;28;20227;-65
2022/11/30 12:06:03;;;;;;;2.60;2.47;;;9.90;99.90;;;;;;5048060;28;20679;-66
2022/11/30 12:08:36;;;;;;;2.30;2.20;;;9.90;99.90;;;;;;5045432;28;20238;-64
2022/11/30 12:11:09;;;;;;;2.50;2.40;;;9.90;99.90;;;;;;5041177;28;20243;-65
2022/11/30 12:13:40;;;;;;;2.17;2.07;;;9.90;99.90;;;;;;5049328;28;20227;-64
2022/11/30 12:16:27;;;;;;;2.27;2.17;;;9.90;99.90;;;;;;5051247;28;20216;-64
2022/11/30 12:19:00;;;;;;;2.40;2.30;;;9.80;99.90;;;;;;5048893;28;20298;-65
2022/11/30 12:21:37;;;;;;;2.50;2.40;;;9.80;99.90;;;;;;5046614;28;20200;-64
2022/11/30 12:24:20;;;;;;;2.80;2.60;;;9.80;99.90;;;;;;5048357;28;20230;-66
2022/11/30 12:26:52;;;;;;;2.50;2.40;;;9.60;99.90;;;;;;5050175;28;20204;-66
2022/11/30 12:29:24;;;;;;;2.50;2.40;;;9.50;99.90;;;;;;5057663;28;20215;-66
2022/11/30 12:32:08;;;;;;;2.60;2.50;;;9.50;99.90;;;;;;5046153;28;20208;-64
2022/11/30 12:34:47;;;;;;;2.63;2.53;;;9.50;99.90;;;;;;5048001;28;20248;-64
2022/11/30 12:37:24;;;;;;;2.37;2.27;;;9.40;99.90;;;;;;5049120;28;20214;-63
2022/11/30 12:40:03;;;;;;;3.00;2.60;;;9.30;99.90;;;;;;5056221;28;20299;-65
2022/11/30 12:42:42;;;;;;;2.93;2.83;;;9.30;99.90;;;;;;5054184;28;20207;-64
2022/11/30 12:45:17;;;;;;;2.60;2.50;;;9.30;99.90;;;;;;5056142;28;20223;-64
2022/11/30 12:47:55;;;;;;;2.40;2.30;;;9.30;99.90;;;;;;5047651;28;20304;-65
2022/11/30 12:50:33;;;;;;;2.80;2.70;;;9.20;99.90;;;;;;5056713;28;20214;-64
2022/11/30 12:53:09;;;;;;;3.00;2.80;;;9.20;99.90;;;;;;5071486;28;20214;-65
2022/11/30 12:55:43;;;;;;;2.50;2.40;;;9.30;99.90;;;;;;5050674;28;20220;-65
2022/11/30 12:58:19;;;;;;;2.67;2.50;;;9.40;99.90;;;;;;5064695;28;20294;-64
2022/11/30 13:01:00;;;;;;;2.50;2.40;;;9.50;99.90;;;;;;5046503;28;20203;-65
2022/11/30 13:03:53;;;;;;;2.50;2.40;;;9.50;99.90;;;;;;5051965;28;20255;-64
2022/11/30 13:06:24;;;;;;;2.40;2.30;;;9.50;99.90;;;;;;5065402;28;20207;-64
2022/11/30 13:09:00;;;;;;;2.40;2.30;;;9.60;99.90;;;;;;5064549;28;20192;-65
2022/11/30 13:11:33;;;;;;;2.60;2.40;;;9.60;99.90;;;;;;5061150;28;20668;-63